sensor_id;sensor_type;location;lat;lon;timestamp;pressure;altitude;pressure_sealevel;temperature;humidity
8039;BME280;4062;49.844;8.120;2023-03-18T00:01:04;98828.66;;;14.14;54.48
8039;BME280;4062;49.844;8.120;2023-03-18T00:03:07;98819.84;;;14.13;54.56
8039;BME280;4062;49.844;8.120;2023-03-18T00:05:09;98818.03;;;14.14;54.62
8039;BME280;4062;49.844;8.120;2023-03-18T00:07:11;98825.16;;;14.13;54.57
8039;BME280;4062;49.844;8.120;2023-03-18T00:09:13;98828.66;;;14.14;54.61
8039;BME280;4062;49.844;8.120;2023-03-18T00:11:17;98824.28;;;14.13;54.50
8039;BME280;4062;49.844;8.120;2023-03-18T00:13:18;98830.47;;;14.13;54.50
8039;BME280;4062;49.844;8.120;2023-03-18T00:15:20;98830.47;;;14.13;54.46
8039;BME280;4062;49.844;8.120;2023-03-18T00:17:21;98833.13;;;14.13;54.62
8039;BME280;4062;49.844;8.120;2023-03-18T00:19:23;98840.22;;;14.13;54.60
8039;BME280;4062;49.844;8.120;2023-03-18T00:21:25;98840.22;;;14.13;54.54
8039;BME280;4062;49.844;8.120;2023-03-18T00:23:27;98842.88;;;14.13;54.66
8039;BME280;4062;49.844;8.120;2023-03-18T00:25:29;98842.88;;;14.13;54.67
8039;BME280;4062;49.844;8.120;2023-03-18T00:27:31;98845.53;;;14.13;54.46
8039;BME280;4062;49.844;8.120;2023-03-18T00:29:32;98845.53;;;14.13;54.52
8039;BME280;4062;49.844;8.120;2023-03-18T00:31:34;98850.00;;;14.12;54.67
8039;BME280;4062;49.844;8.120;2023-03-18T00:33:39;98849.09;;;14.12;54.64
8039;BME280;4062;49.844;8.120;2023-03-18T00:35:41;98844.69;;;14.12;54.69
8039;BME280;4062;49.844;8.120;2023-03-18T00:37:42;98845.53;;;14.13;54.62
8039;BME280;4062;49.844;8.120;2023-03-18T00:39:45;98842.94;;;14.11;54.64
8039;BME280;4062;49.844;8.120;2023-03-18T00:41:48;98851.78;;;14.12;54.60
8039;BME280;4062;49.844;8.120;2023-03-18T00:43:49;98853.56;;;14.11;54.72
8039;BME280;4062;49.844;8.120;2023-03-18T00:45:55;98851.78;;;14.12;54.60
8039;BME280;4062;49.844;8.120;2023-03-18T00:47:58;98861.53;;;14.11;54.72
8039;BME280;4062;49.844;8.120;2023-03-18T00:49:59;98860.63;;;14.12;54.52
8039;BME280;4062;49.844;8.120;2023-03-18T00:52:01;98858.00;;;14.11;54.59
8039;BME280;4062;49.844;8.120;2023-03-18T00:54:05;98864.19;;;14.11;54.53
8039;BME280;4062;49.844;8.120;2023-03-18T00:56:08;98860.66;;;14.11;54.60
8039;BME280;4062;49.844;8.120;2023-03-18T00:58:10;98865.94;;;14.12;54.67
8039;BME280;4062;49.844;8.120;2023-03-18T01:00:14;98863.31;;;14.11;54.71
8039;BME280;4062;49.844;8.120;2023-03-18T01:02:17;98856.22;;;14.11;54.74
8039;BME280;4062;49.844;8.120;2023-03-18T01:04:19;98847.38;;;14.11;54.47
8039;BME280;4062;49.844;8.120;2023-03-18T01:06:26;98842.06;;;14.11;54.59
8039;BME280;4062;49.844;8.120;2023-03-18T01:08:29;98846.53;;;14.10;54.55
8039;BME280;4062;49.844;8.120;2023-03-18T01:10:30;98846.53;;;14.10;54.63
8039;BME280;4062;49.844;8.120;2023-03-18T01:12:32;98848.31;;;14.10;54.72
8039;BME280;4062;49.844;8.120;2023-03-18T01:14:35;98849.19;;;14.10;54.72
8039;BME280;4062;49.844;8.120;2023-03-18T01:16:36;98842.06;;;14.11;54.67
8039;BME280;4062;49.844;8.120;2023-03-18T01:18:38;98853.63;;;14.10;54.64
8039;BME280;4062;49.844;8.120;2023-03-18T01:20:40;98849.19;;;14.10;54.74
8039;BME280;4062;49.844;8.120;2023-03-18T01:22:42;98845.66;;;14.10;54.74
8039;BME280;4062;49.844;8.120;2023-03-18T01:24:45;98838.56;;;14.10;54.73
8039;BME280;4062;49.844;8.120;2023-03-18T01:26:48;98837.69;;;14.10;54.68
8039;BME280;4062;49.844;8.120;2023-03-18T01:28:49;98838.66;;;14.09;54.66
8039;BME280;4062;49.844;8.120;2023-03-18T01:30:52;98827.06;;;14.10;54.65
8039;BME280;4062;49.844;8.120;2023-03-18T01:32:57;98827.06;;;14.10;54.68
8039;BME280;4062;49.844;8.120;2023-03-18T01:34:59;98823.56;;;14.09;54.62
8039;BME280;4062;49.844;8.120;2023-03-18T01:37:01;98834.19;;;14.09;54.63
8039;BME280;4062;49.844;8.120;2023-03-18T01:39:07;98838.56;;;14.10;54.65
8039;BME280;4062;49.844;8.120;2023-03-18T01:41:09;98837.69;;;14.10;54.71
8039;BME280;4062;49.844;8.120;2023-03-18T01:45:22;98826.22;;;14.09;54.73
8039;BME280;4062;49.844;8.120;2023-03-18T01:47:27;98825.38;;;14.09;54.67
8039;BME280;4062;49.844;8.120;2023-03-18T01:49:34;98821.75;;;14.10;54.64
8039;BME280;4062;49.844;8.120;2023-03-18T01:51:40;98828.88;;;14.09;54.58
8039;BME280;4062;49.844;8.120;2023-03-18T01:53:44;98833.34;;;14.09;54.60
8039;BME280;4062;49.844;8.120;2023-03-18T01:55:48;98823.56;;;14.09;54.61
8039;BME280;4062;49.844;8.120;2023-03-18T01:57:51;98822.72;;;14.09;54.69
8039;BME280;4062;49.844;8.120;2023-03-18T01:59:53;98820.13;;;14.07;54.64
8039;BME280;4062;49.844;8.120;2023-03-18T02:02:25;98822.72;;;14.09;54.67
8039;BME280;4062;49.844;8.120;2023-03-18T02:04:30;98824.50;;;14.08;54.68
8039;BME280;4062;49.844;8.120;2023-03-18T02:06:33;98823.66;;;14.07;54.73
8039;BME280;4062;49.844;8.120;2023-03-18T02:08:37;98830.69;;;14.09;54.59
8039;BME280;4062;49.844;8.120;2023-03-18T02:10:40;98821.00;;;14.07;54.68
8039;BME280;4062;49.844;8.120;2023-03-18T02:12:50;98828.97;;;14.07;54.60
8039;BME280;4062;49.844;8.120;2023-03-18T02:15:06;98820.13;;;14.07;54.61
8039;BME280;4062;49.844;8.120;2023-03-18T02:17:14;98817.44;;;14.07;54.73
8039;BME280;4062;49.844;8.120;2023-03-18T02:19:59;98823.66;;;14.07;54.63
8039;BME280;4062;49.844;8.120;2023-03-18T02:22:26;98823.66;;;14.07;54.70
8039;BME280;4062;49.844;8.120;2023-03-18T02:29:19;98826.31;;;14.07;54.66
8039;BME280;4062;49.844;8.120;2023-03-18T02:31:29;98833.38;;;14.07;54.67
8039;BME280;4062;49.844;8.120;2023-03-18T02:33:35;98828.06;;;14.07;54.69
8039;BME280;4062;49.844;8.120;2023-03-18T02:35:39;98842.25;;;14.07;54.70
8039;BME280;4062;49.844;8.120;2023-03-18T02:37:42;98851.13;;;14.06;54.58
8039;BME280;4062;49.844;8.120;2023-03-18T02:39:48;98845.81;;;14.06;54.57
8039;BME280;4062;49.844;8.120;2023-03-18T02:41:50;98855.53;;;14.07;54.75
8039;BME280;4062;49.844;8.120;2023-03-18T02:43:53;98863.50;;;14.07;54.79
8039;BME280;4062;49.844;8.120;2023-03-18T02:48:14;98876.81;;;14.06;54.62
8039;BME280;4062;49.844;8.120;2023-03-18T02:50:18;98874.13;;;14.07;54.78
8039;BME280;4062;49.844;8.120;2023-03-18T02:52:20;98864.41;;;14.06;54.74
8039;BME280;4062;49.844;8.120;2023-03-18T02:54:28;98863.53;;;14.06;54.72
8039;BME280;4062;49.844;8.120;2023-03-18T02:56:29;98857.31;;;14.07;54.60
8039;BME280;4062;49.844;8.120;2023-03-18T02:58:31;98859.97;;;14.07;54.68
8039;BME280;4062;49.844;8.120;2023-03-18T03:00:35;98846.75;;;14.05;54.74
8039;BME280;4062;49.844;8.120;2023-03-18T03:02:37;98836.13;;;14.05;54.72
8039;BME280;4062;49.844;8.120;2023-03-18T03:04:40;98844.94;;;14.06;54.76
8039;BME280;4062;49.844;8.120;2023-03-18T03:06:42;98852.06;;;14.05;54.64
8039;BME280;4062;49.844;8.120;2023-03-18T03:08:45;98850.25;;;14.06;54.75
8039;BME280;4062;49.844;8.120;2023-03-18T03:10:46;98856.44;;;14.06;54.75
8039;BME280;4062;49.844;8.120;2023-03-18T03:12:50;98860.03;;;14.05;54.70
8039;BME280;4062;49.844;8.120;2023-03-18T03:14:52;98857.38;;;14.05;54.78
8039;BME280;4062;49.844;8.120;2023-03-18T03:16:54;98854.72;;;14.05;54.63
8039;BME280;4062;49.844;8.120;2023-03-18T03:18:57;98856.50;;;14.05;54.64
8039;BME280;4062;49.844;8.120;2023-03-18T03:20:59;98858.22;;;14.06;54.74
8039;BME280;4062;49.844;8.120;2023-03-18T03:23:00;98865.34;;;14.05;54.70
8039;BME280;4062;49.844;8.120;2023-03-18T03:25:02;98867.13;;;14.05;54.75
8039;BME280;4062;49.844;8.120;2023-03-18T03:27:04;98870.66;;;14.05;54.75
8039;BME280;4062;49.844;8.120;2023-03-18T03:29:08;98868.84;;;14.06;54.67
8039;BME280;4062;49.844;8.120;2023-03-18T03:31:09;98872.44;;;14.05;54.61
8039;BME280;4062;49.844;8.120;2023-03-18T03:33:11;98870.66;;;14.05;54.63
8039;BME280;4062;49.844;8.120;2023-03-18T03:35:16;98869.78;;;14.05;54.62
8039;BME280;4062;49.844;8.120;2023-03-18T03:37:18;98861.81;;;14.05;54.70
8039;BME280;4062;49.844;8.120;2023-03-18T03:39:21;98855.66;;;14.04;54.75
8039;BME280;4062;49.844;8.120;2023-03-18T03:41:23;98863.63;;;14.04;54.64
8039;BME280;4062;49.844;8.120;2023-03-18T03:43:25;98854.72;;;14.05;54.77
8039;BME280;4062;49.844;8.120;2023-03-18T03:45:27;98860.97;;;14.04;54.78
8039;BME280;4062;49.844;8.120;2023-03-18T03:47:28;98865.34;;;14.05;54.83
8039;BME280;4062;49.844;8.120;2023-03-18T03:49:30;98867.22;;;14.03;54.82
8039;BME280;4062;49.844;8.120;2023-03-18T03:51:32;98868.94;;;14.04;54.72
8039;BME280;4062;49.844;8.120;2023-03-18T03:53:33;98865.44;;;14.04;54.73
8039;BME280;4062;49.844;8.120;2023-03-18T03:55:36;98868.00;;;14.05;54.77
8039;BME280;4062;49.844;8.120;2023-03-18T03:57:38;98860.97;;;14.04;54.70
8039;BME280;4062;49.844;8.120;2023-03-18T03:59:39;98860.97;;;14.04;54.69
8039;BME280;4062;49.844;8.120;2023-03-18T04:01:51;98864.56;;;14.03;54.71
8039;BME280;4062;49.844;8.120;2023-03-18T04:03:52;98864.56;;;14.03;54.68
8039;BME280;4062;49.844;8.120;2023-03-18T04:05:53;98865.44;;;14.04;54.77
8039;BME280;4062;49.844;8.120;2023-03-18T04:07:58;98861.91;;;14.03;54.82
8039;BME280;4062;49.844;8.120;2023-03-18T04:10:10;98861.91;;;14.03;54.80
8039;BME280;4062;49.844;8.120;2023-03-18T04:12:12;98866.28;;;14.04;54.67
8039;BME280;4062;49.844;8.120;2023-03-18T04:14:14;98857.47;;;14.04;54.83
8039;BME280;4062;49.844;8.120;2023-03-18T04:16:16;98868.09;;;14.04;54.80
8039;BME280;4062;49.844;8.120;2023-03-18T04:18:18;98869.88;;;14.03;54.75
8039;BME280;4062;49.844;8.120;2023-03-18T04:20:22;98869.88;;;14.03;54.84
8039;BME280;4062;49.844;8.120;2023-03-18T04:22:24;98872.53;;;14.03;54.49
8039;BME280;4062;49.844;8.120;2023-03-18T04:24:26;98872.53;;;14.03;54.68
8039;BME280;4062;49.844;8.120;2023-03-18T04:26:28;98874.34;;;14.03;54.75
8039;BME280;4062;49.844;8.120;2023-03-18T04:28:34;98884.97;;;14.03;54.69
8039;BME280;4062;49.844;8.120;2023-03-18T04:30:38;98886.69;;;14.04;54.84
8039;BME280;4062;49.844;8.120;2023-03-18T04:32:45;98882.22;;;14.04;54.72
8039;BME280;4062;49.844;8.120;2023-03-18T04:34:46;98875.19;;;14.03;54.78
8039;BME280;4062;49.844;8.120;2023-03-18T04:36:48;98883.16;;;14.03;54.79
8039;BME280;4062;49.844;8.120;2023-03-18T04:38:49;98891.13;;;14.03;54.83
8039;BME280;4062;49.844;8.120;2023-03-18T04:40:51;98894.66;;;14.04;54.70
8039;BME280;4062;49.844;8.120;2023-03-18T04:42:53;98893.78;;;14.03;54.69
8039;BME280;4062;49.844;8.120;2023-03-18T04:44:58;98892.91;;;14.03;54.75
8039;BME280;4062;49.844;8.120;2023-03-18T04:47:00;98893.78;;;14.03;54.75
8039;BME280;4062;49.844;8.120;2023-03-18T04:49:01;98897.34;;;14.02;54.70
8039;BME280;4062;49.844;8.120;2023-03-18T04:51:04;98892.91;;;14.03;54.73
8039;BME280;4062;49.844;8.120;2023-03-18T04:53:08;98899.09;;;14.03;54.77
8039;BME280;4062;49.844;8.120;2023-03-18T04:55:11;98896.50;;;14.02;54.63
8039;BME280;4062;49.844;8.120;2023-03-18T04:57:15;98894.69;;;14.02;54.83
8039;BME280;4062;49.844;8.120;2023-03-18T04:59:23;98894.69;;;14.02;54.77
8039;BME280;4062;49.844;8.120;2023-03-18T05:01:25;98900.00;;;14.02;54.87
8039;BME280;4062;49.844;8.120;2023-03-18T05:03:27;98900.88;;;14.03;54.79
8039;BME280;4062;49.844;8.120;2023-03-18T05:05:30;98900.00;;;14.02;54.85
8039;BME280;4062;49.844;8.120;2023-03-18T05:07:33;98900.00;;;14.02;54.72
8039;BME280;4062;49.844;8.120;2023-03-18T05:09:42;98893.84;;;14.02;54.63
8039;BME280;4062;49.844;8.120;2023-03-18T05:11:45;98893.84;;;14.02;54.77
8039;BME280;4062;49.844;8.120;2023-03-18T05:13:57;98895.63;;;14.01;54.75
8039;BME280;4062;49.844;8.120;2023-03-18T05:15:59;98894.69;;;14.02;54.78
8039;BME280;4062;49.844;8.120;2023-03-18T05:18:01;98893.84;;;14.02;54.64
8039;BME280;4062;49.844;8.120;2023-03-18T05:20:03;98885.88;;;14.02;54.65
8039;BME280;4062;49.844;8.120;2023-03-18T05:22:04;98892.97;;;14.01;54.81
8039;BME280;4062;49.844;8.120;2023-03-18T05:24:07;98891.19;;;14.02;54.79
8039;BME280;4062;49.844;8.120;2023-03-18T05:26:13;98895.63;;;14.01;54.71
8039;BME280;4062;49.844;8.120;2023-03-18T05:28:18;98898.28;;;14.01;54.91
8039;BME280;4062;49.844;8.120;2023-03-18T05:30:29;98896.50;;;14.02;54.65
8039;BME280;4062;49.844;8.120;2023-03-18T05:32:30;98897.44;;;14.01;54.70
8039;BME280;4062;49.844;8.120;2023-03-18T05:34:38;98886.81;;;14.01;54.81
8039;BME280;4062;49.844;8.120;2023-03-18T05:36:40;98892.03;;;14.02;54.65
8039;BME280;4062;49.844;8.120;2023-03-18T05:38:44;98891.19;;;14.02;54.66
8039;BME280;4062;49.844;8.120;2023-03-18T05:40:46;98885.88;;;14.02;54.79
8039;BME280;4062;49.844;8.120;2023-03-18T05:43:03;98887.66;;;14.01;54.73
8039;BME280;4062;49.844;8.120;2023-03-18T05:45:25;98893.91;;;14.00;54.75
8039;BME280;4062;49.844;8.120;2023-03-18T05:47:29;98906.25;;;14.01;54.86
8039;BME280;4062;49.844;8.120;2023-03-18T05:49:40;98900.09;;;14.01;54.63
8039;BME280;4062;49.844;8.120;2023-03-18T05:51:50;98905.41;;;14.01;54.67
8039;BME280;4062;49.844;8.120;2023-03-18T05:54:03;98899.22;;;14.00;54.75
8039;BME280;4062;49.844;8.120;2023-03-18T05:56:13;98907.19;;;14.00;54.74
8039;BME280;4062;49.844;8.120;2023-03-18T05:58:17;98908.91;;;14.01;54.87
8039;BME280;4062;49.844;8.120;2023-03-18T06:00:21;98904.53;;;14.00;54.85
8039;BME280;4062;49.844;8.120;2023-03-18T06:02:24;98904.53;;;14.00;54.81
8039;BME280;4062;49.844;8.120;2023-03-18T06:04:27;98900.09;;;14.01;54.83
8039;BME280;4062;49.844;8.120;2023-03-18T06:06:28;98905.41;;;14.01;54.91
8039;BME280;4062;49.844;8.120;2023-03-18T06:08:29;98907.19;;;14.00;54.67
8039;BME280;4062;49.844;8.120;2023-03-18T06:10:31;98904.53;;;14.00;54.67
8039;BME280;4062;49.844;8.120;2023-03-18T06:12:33;98908.06;;;14.01;54.70
8039;BME280;4062;49.844;8.120;2023-03-18T06:14:36;98909.84;;;14.00;54.85
8039;BME280;4062;49.844;8.120;2023-03-18T06:16:38;98913.38;;;14.01;54.78
8039;BME280;4062;49.844;8.120;2023-03-18T06:18:40;98909.84;;;14.00;54.74
8039;BME280;4062;49.844;8.120;2023-03-18T06:20:42;98916.03;;;14.01;54.87
8039;BME280;4062;49.844;8.120;2023-03-18T06:22:44;98911.56;;;14.01;54.85
8039;BME280;4062;49.844;8.120;2023-03-18T06:24:49;98915.16;;;14.00;54.72
8039;BME280;4062;49.844;8.120;2023-03-18T06:26:52;98919.63;;;14.00;54.73
8039;BME280;4062;49.844;8.120;2023-03-18T06:28:54;98915.16;;;14.00;54.79
8039;BME280;4062;49.844;8.120;2023-03-18T06:30:59;98915.16;;;14.00;54.80
8039;BME280;4062;49.844;8.120;2023-03-18T06:33:03;98920.47;;;14.00;54.81
8039;BME280;4062;49.844;8.120;2023-03-18T06:35:06;98919.63;;;14.00;54.85
8039;BME280;4062;49.844;8.120;2023-03-18T06:37:08;98925.84;;;13.99;54.80
8039;BME280;4062;49.844;8.120;2023-03-18T06:39:11;98925.78;;;14.00;54.77
8039;BME280;4062;49.844;8.120;2023-03-18T06:41:15;98933.75;;;14.00;54.80
8039;BME280;4062;49.844;8.120;2023-03-18T06:43:32;98927.59;;;14.00;54.81
8039;BME280;4062;49.844;8.120;2023-03-18T06:45:35;98931.09;;;14.00;54.74
8039;BME280;4062;49.844;8.120;2023-03-18T06:47:41;98929.38;;;13.99;54.80
8039;BME280;4062;49.844;8.120;2023-03-18T06:49:43;98934.72;;;13.99;54.80
8039;BME280;4062;49.844;8.120;2023-03-18T06:51:53;98930.25;;;14.00;54.73
8039;BME280;4062;49.844;8.120;2023-03-18T06:53:55;98932.91;;;14.00;54.82
8039;BME280;4062;49.844;8.120;2023-03-18T06:55:57;98935.56;;;14.00;54.80
8039;BME280;4062;49.844;8.120;2023-03-18T06:58:02;98939.13;;;13.99;54.80
8039;BME280;4062;49.844;8.120;2023-03-18T07:00:13;98934.72;;;13.99;54.81
8039;BME280;4062;49.844;8.120;2023-03-18T07:02:16;98943.53;;;14.00;54.80
8039;BME280;4062;49.844;8.120;2023-03-18T07:04:18;98943.59;;;13.98;54.70
8039;BME280;4062;49.844;8.120;2023-03-18T07:06:20;98933.81;;;13.99;54.67
8039;BME280;4062;49.844;8.120;2023-03-18T07:08:25;98934.72;;;13.99;54.82
8039;BME280;4062;49.844;8.120;2023-03-18T07:10:28;98946.19;;;14.00;54.79
8039;BME280;4062;49.844;8.120;2023-03-18T07:12:38;98948.84;;;14.00;54.67
8039;BME280;4062;49.844;8.120;2023-03-18T07:14:40;98948.84;;;14.00;54.82
8039;BME280;4062;49.844;8.120;2023-03-18T07:16:43;98951.50;;;14.00;54.78
8039;BME280;4062;49.844;8.120;2023-03-18T07:18:44;98957.66;;;14.00;54.86
8039;BME280;4062;49.844;8.120;2023-03-18T07:20:46;98956.81;;;14.00;54.80
8039;BME280;4062;49.844;8.120;2023-03-18T07:22:49;98961.19;;;14.01;54.80
8039;BME280;4062;49.844;8.120;2023-03-18T07:24:51;98961.19;;;14.01;54.80
8039;BME280;4062;49.844;8.120;2023-03-18T07:26:53;98966.56;;;13.99;54.81
8039;BME280;4062;49.844;8.120;2023-03-18T07:28:55;98964.78;;;14.00;54.86
8039;BME280;4062;49.844;8.120;2023-03-18T07:30:56;98960.31;;;14.00;54.72
8039;BME280;4062;49.844;8.120;2023-03-18T07:32:58;98961.19;;;14.01;54.74
8039;BME280;4062;49.844;8.120;2023-03-18T07:35:01;98959.47;;;14.00;54.74
8039;BME280;4062;49.844;8.120;2023-03-18T07:37:04;98959.47;;;14.00;54.73
8039;BME280;4062;49.844;8.120;2023-03-18T07:39:06;98962.97;;;14.00;54.66
8039;BME280;4062;49.844;8.120;2023-03-18T07:41:08;98963.84;;;14.01;54.77
8039;BME280;4062;49.844;8.120;2023-03-18T07:43:09;98970.00;;;14.01;54.75
8039;BME280;4062;49.844;8.120;2023-03-18T07:45:10;98966.50;;;14.01;54.85
8039;BME280;4062;49.844;8.120;2023-03-18T07:47:12;98970.00;;;14.01;54.73
8039;BME280;4062;49.844;8.120;2023-03-18T07:49:16;98969.16;;;14.01;54.67
8039;BME280;4062;49.844;8.120;2023-03-18T07:51:18;98968.22;;;14.02;54.77
8039;BME280;4062;49.844;8.120;2023-03-18T07:53:20;98962.91;;;14.02;54.78
8039;BME280;4062;49.844;8.120;2023-03-18T07:55:21;98969.94;;;14.03;54.79
8039;BME280;4062;49.844;8.120;2023-03-18T07:57:22;98963.75;;;14.02;54.84
8039;BME280;4062;49.844;8.120;2023-03-18T07:59:24;98961.09;;;14.02;54.79
8039;BME280;4062;49.844;8.120;2023-03-18T08:01:25;98969.06;;;14.02;54.78
8039;BME280;4062;49.844;8.120;2023-03-18T08:03:28;98970.88;;;14.02;54.65
8039;BME280;4062;49.844;8.120;2023-03-18T08:05:29;98966.41;;;14.02;54.65
8039;BME280;4062;49.844;8.120;2023-03-18T08:07:32;98966.41;;;14.02;54.72
8039;BME280;4062;49.844;8.120;2023-03-18T08:09:34;98971.72;;;14.02;54.71
8039;BME280;4062;49.844;8.120;2023-03-18T08:11:39;98977.91;;;14.03;54.66
8039;BME280;4062;49.844;8.120;2023-03-18T08:13:41;98982.31;;;14.04;54.77
8039;BME280;4062;49.844;8.120;2023-03-18T08:15:43;98980.56;;;14.03;54.62
8039;BME280;4062;49.844;8.120;2023-03-18T08:17:45;98988.47;;;14.04;54.63
8039;BME280;4062;49.844;8.120;2023-03-18T08:19:46;98985.81;;;14.04;54.63
8039;BME280;4062;49.844;8.120;2023-03-18T08:21:49;98985.81;;;14.04;54.72
8039;BME280;4062;49.844;8.120;2023-03-18T08:23:50;98978.78;;;14.03;54.78
8039;BME280;4062;49.844;8.120;2023-03-18T08:25:52;98984.00;;;14.05;54.65
8039;BME280;4062;49.844;8.120;2023-03-18T08:27:53;98986.66;;;14.05;54.63
8039;BME280;4062;49.844;8.120;2023-03-18T08:29:54;98990.19;;;14.05;54.62
8039;BME280;4062;49.844;8.120;2023-03-18T08:31:56;98977.75;;;14.06;54.62
8039;BME280;4062;49.844;8.120;2023-03-18T08:33:58;98976.91;;;14.05;54.67
8039;BME280;4062;49.844;8.120;2023-03-18T08:36:00;98983.06;;;14.06;54.69
8039;BME280;4062;49.844;8.120;2023-03-18T08:38:02;98990.19;;;14.05;54.56
8039;BME280;4062;49.844;8.120;2023-03-18T08:40:05;98993.69;;;14.06;54.65
8039;BME280;4062;49.844;8.120;2023-03-18T08:42:06;98997.22;;;14.06;54.57
8039;BME280;4062;49.844;8.120;2023-03-18T08:44:08;98997.22;;;14.06;54.48
8039;BME280;4062;49.844;8.120;2023-03-18T08:46:10;98999.88;;;14.06;54.47
8039;BME280;4062;49.844;8.120;2023-03-18T08:48:12;98991.84;;;14.08;54.46
8039;BME280;4062;49.844;8.120;2023-03-18T08:50:14;98994.50;;;14.08;54.45
8039;BME280;4062;49.844;8.120;2023-03-18T08:52:15;98997.16;;;14.08;54.43
8039;BME280;4062;49.844;8.120;2023-03-18T08:54:18;98998.03;;;14.09;54.59
8039;BME280;4062;49.844;8.120;2023-03-18T08:56:20;98997.16;;;14.08;54.56
8039;BME280;4062;49.844;8.120;2023-03-18T08:58:21;99002.47;;;14.08;54.50
8039;BME280;4062;49.844;8.120;2023-03-18T09:00:23;99004.19;;;14.09;54.45
8039;BME280;4062;49.844;8.120;2023-03-18T09:02:25;99003.28;;;14.10;54.45
8039;BME280;4062;49.844;8.120;2023-03-18T09:04:27;98996.22;;;14.09;54.55
8039;BME280;4062;49.844;8.120;2023-03-18T09:06:29;98991.75;;;14.10;54.48
8039;BME280;4062;49.844;8.120;2023-03-18T09:08:30;98997.06;;;14.10;54.71
8039;BME280;4062;49.844;8.120;2023-03-18T09:10:32;98997.06;;;14.10;54.77
8039;BME280;4062;49.844;8.120;2023-03-18T09:12:34;98999.69;;;14.11;54.50
8039;BME280;4062;49.844;8.120;2023-03-18T09:14:35;98994.41;;;14.10;54.41
8039;BME280;4062;49.844;8.120;2023-03-18T09:16:37;98990.84;;;14.11;54.38
8039;BME280;4062;49.844;8.120;2023-03-18T09:18:38;98989.06;;;14.11;54.44
8039;BME280;4062;49.844;8.120;2023-03-18T09:20:41;98988.19;;;14.11;54.31
8039;BME280;4062;49.844;8.120;2023-03-18T09:22:44;98984.59;;;14.12;54.34
8039;BME280;4062;49.844;8.120;2023-03-18T09:24:45;98981.09;;;14.11;54.52
8039;BME280;4062;49.844;8.120;2023-03-18T09:26:47;98983.75;;;14.11;54.47
8039;BME280;4062;49.844;8.120;2023-03-18T09:28:48;98977.50;;;14.12;54.49
8039;BME280;4062;49.844;8.120;2023-03-18T09:30:50;98977.50;;;14.12;54.49
8039;BME280;4062;49.844;8.120;2023-03-18T09:32:52;98972.19;;;14.12;54.49
8039;BME280;4062;49.844;8.120;2023-03-18T09:34:53;98969.53;;;14.12;54.43
8039;BME280;4062;49.844;8.120;2023-03-18T09:36:55;98976.56;;;14.13;54.45
8039;BME280;4062;49.844;8.120;2023-03-18T09:38:58;98981.88;;;14.13;54.41
8039;BME280;4062;49.844;8.120;2023-03-18T09:48:13;98987.97;;;14.15;54.31
8039;BME280;4062;49.844;8.120;2023-03-18T09:55:00;98986.19;;;14.16;54.23
8039;BME280;4062;49.844;8.120;2023-03-18T09:57:10;98988.84;;;14.16;54.38
8039;BME280;4062;49.844;8.120;2023-03-18T10:01:35;98981.72;;;14.16;54.40
8039;BME280;4062;49.844;8.120;2023-03-18T10:03:52;98979.06;;;14.16;54.33
8039;BME280;4062;49.844;8.120;2023-03-18T10:08:23;98976.41;;;14.16;54.25
8039;BME280;4062;49.844;8.120;2023-03-18T10:10:37;98985.25;;;14.17;54.28
8039;BME280;4062;49.844;8.120;2023-03-18T10:12:43;98987.03;;;14.16;54.26
8039;BME280;4062;49.844;8.120;2023-03-18T10:17:30;98985.31;;;14.15;54.37
8039;BME280;4062;49.844;8.120;2023-03-18T10:19:33;98987.03;;;14.16;54.52
8039;BME280;4062;49.844;8.120;2023-03-18T10:24:41;98982.66;;;14.15;54.25
8039;BME280;4062;49.844;8.120;2023-03-18T10:26:48;98974.69;;;14.15;54.30
8039;BME280;4062;49.844;8.120;2023-03-18T10:31:29;98979.16;;;14.15;54.30
8039;BME280;4062;49.844;8.120;2023-03-18T10:35:59;98978.22;;;14.16;54.36
8039;BME280;4062;49.844;8.120;2023-03-18T10:38:23;98977.34;;;14.15;54.40
8039;BME280;4062;49.844;8.120;2023-03-18T10:40:27;98974.69;;;14.15;54.28
8039;BME280;4062;49.844;8.120;2023-03-18T10:42:31;98980.00;;;14.15;54.24
8039;BME280;4062;49.844;8.120;2023-03-18T10:44:35;98983.53;;;14.16;54.22
8039;BME280;4062;49.844;8.120;2023-03-18T10:46:38;98982.66;;;14.15;54.22
8039;BME280;4062;49.844;8.120;2023-03-18T10:51:08;98971.19;;;14.15;54.29
8039;BME280;4062;49.844;8.120;2023-03-18T10:53:45;98982.66;;;14.15;54.30
8039;BME280;4062;49.844;8.120;2023-03-18T10:55:59;98976.50;;;14.15;54.36
8039;BME280;4062;49.844;8.120;2023-03-18T10:58:16;98970.31;;;14.14;54.27
8039;BME280;4062;49.844;8.120;2023-03-18T11:00:30;98972.09;;;14.14;54.30
8039;BME280;4062;49.844;8.120;2023-03-18T11:02:35;98977.44;;;14.14;54.29
8039;BME280;4062;49.844;8.120;2023-03-18T11:04:48;98979.16;;;14.15;54.27
8039;BME280;4062;49.844;8.120;2023-03-18T11:07:05;98974.75;;;14.14;54.31
8039;BME280;4062;49.844;8.120;2023-03-18T11:09:14;98983.59;;;14.14;54.20
8039;BME280;4062;49.844;8.120;2023-03-18T11:11:31;98974.75;;;14.14;54.26
8039;BME280;4062;49.844;8.120;2023-03-18T11:13:33;98979.22;;;14.13;54.37
8039;BME280;4062;49.844;8.120;2023-03-18T11:15:37;98980.09;;;14.14;54.31
8039;BME280;4062;49.844;8.120;2023-03-18T11:17:40;98973.91;;;14.13;54.19
8039;BME280;4062;49.844;8.120;2023-03-18T11:19:46;98977.44;;;14.14;54.37
8039;BME280;4062;49.844;8.120;2023-03-18T11:21:49;98974.75;;;14.14;54.44
8039;BME280;4062;49.844;8.120;2023-03-18T11:23:59;98976.56;;;14.13;54.39
8039;BME280;4062;49.844;8.120;2023-03-18T11:26:26;98981.88;;;14.13;54.39
8039;BME280;4062;49.844;8.120;2023-03-18T11:28:28;98974.84;;;14.12;54.26
8039;BME280;4062;49.844;8.120;2023-03-18T11:30:43;98979.22;;;14.13;54.43
8039;BME280;4062;49.844;8.120;2023-03-18T11:32:56;98965.94;;;14.13;54.29
8039;BME280;4062;49.844;8.120;2023-03-18T11:35:04;98965.94;;;14.13;54.31
8039;BME280;4062;49.844;8.120;2023-03-18T11:37:10;98965.94;;;14.13;54.31
8039;BME280;4062;49.844;8.120;2023-03-18T11:39:13;98958.81;;;14.14;54.35
8039;BME280;4062;49.844;8.120;2023-03-18T11:41:24;98956.16;;;14.14;54.36
8039;BME280;4062;49.844;8.120;2023-03-18T11:43:25;98957.09;;;14.13;54.33
8039;BME280;4062;49.844;8.120;2023-03-18T11:45:47;98956.16;;;14.14;54.38
8039;BME280;4062;49.844;8.120;2023-03-18T11:47:50;98954.38;;;14.14;54.38
8039;BME280;4062;49.844;8.120;2023-03-18T11:49:52;98953.50;;;14.14;54.38
8039;BME280;4062;49.844;8.120;2023-03-18T11:58:55;98947.34;;;14.13;54.50
8039;BME280;4062;49.844;8.120;2023-03-18T12:03:42;98951.78;;;14.13;54.46
8039;BME280;4062;49.844;8.120;2023-03-18T12:06:02;98935.00;;;14.12;54.45